Time;durP1;ratioP1;P1;durP2;ratioP2;P2;SDS_P1;SDS_P2;PMS_P1;PMS_P2;Temp;Humidity;BMP_temperature;BMP_pressure;BME280_temperature;BME280_humidity;BME280_pressure;Samples;Min_cycle;Max_cycle;Signal;HPM_P1;HPM_P2
2022/11/24 02:07:47;;;;;;;1.50;1.40;;;-1.00;99.90;;;;;;4753264;30;20195;-93
2022/11/24 02:46:14;;;;;;;;;;;;;;;;;;;;;
2022/11/24 02:53:20;;;;;;;;;;;;;;;;;;;;;
2022/11/24 04:16:12;;;;;;;2.30;2.20;;;-1.20;99.90;;;;;;5180425;24;20245;-95
2022/11/24 04:29:57;;;;;;;;;;;;;;;;;;;;;
2022/11/24 04:40:17;;;;;;;;;;;;;;;;;;;;;
2022/11/24 04:42:39;;;;;;;2.97;2.80;;;;;;;;;;4806968;29;20308;-94
2022/11/24 04:45:15;;;;;;;1.00;1.00;;;-1.20;99.90;;;;;;4810328;29;20343;-94
2022/11/24 04:48:12;;;;;;;1.77;1.67;;;-1.20;99.90;;;;;;4844794;29;20633;-93
2022/11/24 04:51:04;;;;;;;;;;;;;;;;;;;;;
2022/11/24 04:53:41;;;;;;;1.37;1.30;;;;;;;;;;4845630;29;20203;-94
2022/11/24 04:56:17;;;;;;;;;;;;;;;;;;;;;
2022/11/24 04:58:46;;;;;;;1.70;1.60;;;;;;;;;;4834581;29;20289;-95
2022/11/24 05:01:27;;;;;;;1.70;1.60;;;-1.20;99.90;;;;;;4850486;29;20278;-95
2022/11/24 05:03:53;;;;;;;1.70;1.63;;;-1.20;99.90;;;;;;4841061;29;20191;-96
2022/11/24 05:06:52;;;;;;;3.67;1.80;;;-1.20;99.90;;;;;;4851785;29;20214;-95
2022/11/24 05:09:28;;;;;;;1.17;1.17;;;;;;;;;;4852461;29;20202;-95
2022/11/24 05:11:54;;;;;;;1.30;1.30;;;;;;;;;;4848757;29;20179;-93
2022/11/24 05:14:36;;;;;;;;;;;;;;;;;;;;;
2022/11/24 05:17:16;;;;;;;;;;;;;;;;;;;;;
2022/11/24 05:19:50;;;;;;;2.03;1.87;;;;;;;;;;4850370;29;20179;-93
2022/11/24 05:22:18;;;;;;;2.17;2.07;;;;;;;;;;4849632;29;20175;-94
2022/11/24 05:24:49;;;;;;;9.03;2.20;;;-1.20;99.90;;;;;;4849847;29;20170;-95
2022/11/24 05:27:22;;;;;;;2.47;2.33;;;;;;;;;;4863826;29;20241;-94
2022/11/24 05:29:48;;;;;;;1.73;1.63;;;;;;;;;;4848823;29;20255;-95
2022/11/24 05:32:18;;;;;;;1.47;1.37;;;-1.20;99.90;;;;;;4849326;29;20201;-94
2022/11/24 05:34:46;;;;;;;1.60;1.50;;;-1.20;99.90;;;;;;4849106;29;20204;-96
2022/11/24 05:37:13;;;;;;;2.00;1.83;;;;;;;;;;4845851;29;20242;-94
2022/11/24 05:39:55;;;;;;;3.17;2.87;;;-1.20;99.90;;;;;;4837864;29;20190;-94
2022/11/24 05:42:40;;;;;;;8.17;3.70;;;;;;;;;;4823916;29;20194;-95
2022/11/24 05:45:12;;;;;;;3.50;3.23;;;-1.20;99.90;;;;;;4862350;29;20211;-96
2022/11/24 05:47:42;;;;;;;2.10;2.00;;;-1.20;99.90;;;;;;4845008;29;20191;-91
2022/11/24 05:50:10;;;;;;;4.03;1.73;;;-0.90;99.90;;;;;;4852322;29;20185;-92
2022/11/24 05:52:36;;;;;;;2.87;2.50;;;;;;;;;;4810981;29;20198;-92
2022/11/24 05:55:02;;;;;;;4.93;2.37;;;;;;;;;;4827419;29;20187;-92
2022/11/24 05:57:37;;;;;;;2.50;2.30;;;-1.20;99.90;;;;;;4840914;29;20221;-94
2022/11/24 06:00:07;;;;;;;3.90;2.63;;;-1.20;99.90;;;;;;4840427;29;20183;-92
2022/11/24 06:02:40;;;;;;;2.50;2.40;;;;;;;;;;4840356;29;20206;-93
2022/11/24 06:05:06;;;;;;;2.33;2.23;;;;;;;;;;4825044;29;20198;-90
2022/11/24 06:07:32;;;;;;;5.23;3.30;;;;;;;;;;4840147;29;20277;-92
2022/11/24 06:10:01;;;;;;;2.67;1.93;;;-1.20;99.90;;;;;;4840496;29;20202;-93
2022/11/24 06:12:28;;;;;;;3.17;2.97;;;;;;;;;;4824767;29;20202;-90
2022/11/24 06:15:00;;;;;;;4.57;2.97;;;-1.20;99.90;;;;;;4824933;29;20218;-89
2022/11/24 06:17:34;;;;;;;7.27;5.13;;;;;;;;;;4810620;29;20242;-90
2022/11/24 06:20:07;;;;;;;7.67;3.93;;;;;;;;;;4833207;29;20233;-91
2022/11/24 06:22:36;;;;;;;5.83;5.23;;;;;;;;;;4824987;29;20195;-92
2022/11/24 06:25:02;;;;;;;4.27;3.90;;;;;;;;;;4824582;29;20215;-91
2022/11/24 06:27:28;;;;;;;2.47;2.27;;;;;;;;;;4824576;29;20232;-91
2022/11/24 06:29:59;;;;;;;4.13;3.40;;;;;;;;;;4824846;29;20193;-91
2022/11/24 06:32:37;;;;;;;16.53;2.43;;;-1.10;99.90;;;;;;4824821;29;20216;-91
2022/11/24 06:35:11;;;;;;;5.30;2.53;;;-1.00;99.90;;;;;;4826550;29;20288;-90
2022/11/24 06:37:39;;;;;;;9.53;4.93;;;;;;;;;;4810607;29;20672;-91
2022/11/24 06:40:09;;;;;;;9.17;6.03;;;-1.00;99.90;;;;;;4825040;29;20204;-91
2022/11/24 06:42:38;;;;;;;8.30;4.70;;;-1.00;99.90;;;;;;4809866;29;20218;-93
2022/11/24 06:45:09;;;;;;;6.40;4.77;;;-1.00;99.90;;;;;;4840150;29;20176;-92
2022/11/24 06:47:40;;;;;;;3.63;3.37;;;-1.00;99.90;;;;;;4842091;29;20643;-90
2022/11/24 06:50:09;;;;;;;6.83;4.33;;;;;;;;;;4825396;29;20191;-91
2022/11/24 06:52:35;;;;;;;12.63;5.83;;;;;;;;;;4824431;29;20179;-90
2022/11/24 06:55:02;;;;;;;11.47;4.50;;;;;;;;;;4824554;29;20663;-91
2022/11/24 06:57:32;;;;;;;14.50;2.93;;;-0.90;99.90;;;;;;4824261;29;20211;-91
2022/11/24 07:00:08;;;;;;;26.13;7.87;;;-0.90;99.90;;;;;;4809644;29;20603;-91
2022/11/24 07:02:39;;;;;;;4.13;3.83;;;-0.90;99.90;;;;;;4839358;29;20195;-92
2022/11/24 07:05:10;;;;;;;2.40;2.23;;;-0.90;99.90;;;;;;4825014;29;20653;-91
2022/11/24 07:07:36;;;;;;;4.17;3.73;;;;;;;;;;4838943;29;20182;-90
2022/11/24 07:10:02;;;;;;;14.87;6.77;;;;;;;;;;4823642;29;20188;-91
2022/11/24 07:12:38;;;;;;;9.70;5.97;;;-0.90;99.90;;;;;;4823259;29;20194;-91
2022/11/24 07:15:21;;;;;;;9.27;6.27;;;-0.80;99.90;;;;;;4809092;29;20704;-91
2022/11/24 07:17:50;;;;;;;16.13;4.00;;;;;;;;;;4839041;29;20220;-91
2022/11/24 07:20:19;;;;;;;7.00;4.67;;;;;;;;;;4823627;29;20190;-90
2022/11/24 07:22:56;;;;;;;4.77;4.37;;;-0.70;99.90;;;;;;4823427;29;20189;-91
2022/11/24 07:25:30;;;;;;;7.10;3.83;;;-0.70;99.90;;;;;;4838642;29;20197;-92
2022/11/24 07:27:59;;;;;;;3.07;2.87;;;-0.70;99.90;;;;;;4839000;29;20237;-92
2022/11/24 07:30:26;;;;;;;2.53;2.43;;;-0.70;99.90;;;;;;4827660;29;20359;-94
2022/11/24 07:32:59;;;;;;;7.43;3.13;;;;;;;;;;4842697;29;20186;-94
2022/11/24 07:35:25;;;;;;;3.90;3.13;;;;;;;;;;4827600;29;20268;-90
2022/11/24 07:37:57;;;;;;;4.20;3.77;;;-0.60;99.90;;;;;;4826314;29;20199;-90
2022/11/24 07:40:28;;;;;;;3.50;1.90;;;-0.60;99.90;;;;;;4842692;29;20188;-90
2022/11/24 07:42:59;;;;;;;3.47;2.60;;;-0.60;99.90;;;;;;4842386;29;20184;-89
2022/11/24 07:45:27;;;;;;;7.30;5.07;;;;;;;;;;4842651;29;20187;-88
2022/11/24 07:47:53;;;;;;;8.33;2.27;;;;;;;;;;4827353;29;20255;-90
2022/11/24 07:50:19;;;;;;;6.90;3.13;;;;;;;;;;4826981;29;20239;-90
2022/11/24 07:52:45;;;;;;;9.37;4.83;;;;;;;;;;4826365;29;20282;-90
2022/11/24 07:55:19;;;;;;;9.47;4.33;;;-0.40;99.90;;;;;;4826006;29;20248;-88
2022/11/24 07:57:54;;;;;;;2.77;2.60;;;-0.40;99.90;;;;;;4826552;29;20730;-92
2022/11/24 08:00:22;;;;;;;4.47;3.37;;;-0.40;99.90;;;;;;4842416;29;20184;-91
2022/11/24 08:02:48;;;;;;;2.90;2.13;;;;;;;;;;4827872;29;20182;-91
2022/11/24 08:05:17;;;;;;;10.97;5.67;;;;;;;;;;4826909;29;20253;-91
2022/11/24 08:07:45;;;;;;;10.77;2.93;;;;;;;;;;4826470;29;20195;-91
2022/11/24 08:10:11;;;;;;;6.13;4.07;;;;;;;;;;4827415;29;20284;-90
2022/11/24 08:12:37;;;;;;;14.07;3.70;;;;;;;;;;4827179;29;20194;-90
2022/11/24 08:15:03;;;;;;;4.17;3.77;;;;;;;;;;4825743;29;20242;-91
2022/11/24 08:17:32;;;;;;;7.30;3.33;;;;;;;;;;4826391;29;20221;-90
2022/11/24 08:19:58;;;;;;;7.30;5.27;;;;;;;;;;4829170;29;20195;-90
2022/11/24 08:22:24;;;;;;;10.57;3.43;;;;;;;;;;4826574;29;20324;-89
2022/11/24 08:24:54;;;;;;;3.40;2.73;;;0.00;99.90;;;;;;4826957;29;20196;-91
2022/11/24 08:27:48;;;;;;;1.93;1.80;;;0.10;99.90;;;;;;4841454;29;20243;-92
2022/11/24 08:30:19;;;;;;;19.37;6.80;;;0.20;99.90;;;;;;4839711;29;20228;-91
2022/11/24 08:32:59;;;;;;;3.20;2.97;;;0.20;99.90;;;;;;4841416;29;20192;-91
2022/11/24 08:35:26;;;;;;;5.03;3.60;;;;;;;;;;4827121;29;20184;-90
2022/11/24 08:38:06;;;;;;;11.20;4.97;;;0.30;99.90;;;;;;4826703;29;20184;-90
2022/11/24 08:40:32;;;;;;;10.97;2.67;;;;;;;;;;4826118;29;20183;-89
2022/11/24 08:43:06;;;;;;;3.07;2.23;;;0.50;99.90;;;;;;4827269;29;20192;-93
2022/11/24 08:45:32;;;;;;;2.90;2.70;;;;;;;;;;4841590;29;20192;-89
2022/11/24 08:48:10;;;;;;;4.53;4.13;;;0.50;99.90;;;;;;4826242;29;20220;-89
2022/11/24 08:50:36;;;;;;;10.53;3.10;;;;;;;;;;4827199;29;20287;-90
2022/11/24 08:53:05;;;;;;;7.70;5.10;;;;;;;;;;4825633;29;20567;-90
2022/11/24 08:55:37;;;;;;;2.80;2.60;;;0.50;99.90;;;;;;4826328;29;20192;-91
2022/11/24 08:58:03;;;;;;;3.23;2.93;;;;;;;;;;4826733;29;20200;-91
2022/11/24 09:00:44;;;;;;;;;;;;;;;;;;;;;
2022/11/24 09:03:11;;;;;;;2.33;2.13;;;;;;;;;;4826897;29;20192;-90
2022/11/24 09:05:48;;;;;;;3.97;3.57;;;0.60;99.90;;;;;;4826481;29;20198;-90
2022/11/24 09:08:14;;;;;;;2.43;2.23;;;0.60;99.90;;;;;;4841026;29;20179;-89
2022/11/24 09:10:42;;;;;;;4.97;2.57;;;;;;;;;;4841134;29;20194;-91
2022/11/24 09:13:08;;;;;;;2.97;2.67;;;;;;;;;;4825247;29;20191;-91
2022/11/24 09:15:37;;;;;;;3.50;3.00;;;;;;;;;;4825737;29;20685;-91
2022/11/24 09:18:14;;;;;;;;;;;;;;;;;;;;;
2022/11/24 09:20:40;;;;;;;6.30;4.07;;;;;;;;;;4827186;29;20164;-91
2022/11/24 09:23:06;;;;;;;2.80;2.63;;;;;;;;;;4837447;29;20188;-88
2022/11/24 09:25:34;;;;;;;2.40;2.20;;;0.80;99.90;;;;;;4847203;29;20184;-88
2022/11/24 09:28:01;;;;;;;1.70;1.60;;;;;;;;;;4856074;29;20259;-87
2022/11/24 09:30:29;;;;;;;3.63;2.63;;;0.80;99.90;;;;;;4830820;29;20353;-88
2022/11/24 09:32:59;;;;;;;7.83;3.50;;;0.90;99.90;;;;;;4841711;29;20242;-88
2022/11/24 09:35:25;;;;;;;8.20;2.97;;;;;;;;;;4826327;29;20172;-88
2022/11/24 09:37:52;;;;;;;4.87;2.90;;;;;;;;;;4824856;29;20193;-89
2022/11/24 09:40:21;;;;;;;1.53;1.43;;;0.80;99.90;;;;;;4825843;29;20219;-85
2022/11/24 09:42:58;;;;;;;3.17;2.80;;;0.90;99.90;;;;;;4839798;29;20215;-89
2022/11/24 09:45:54;;;;;;;2.20;2.07;;;0.90;99.90;;;;;;4824878;29;20634;-86
2022/11/24 09:48:28;;;;;;;4.33;2.40;;;0.90;99.90;;;;;;4826060;29;20172;-90
2022/11/24 09:51:03;;;;;;;3.37;2.43;;;0.90;99.90;;;;;;4826077;29;20168;-91
2022/11/24 09:53:30;;;;;;;2.33;2.07;;;;;;;;;;4839302;29;20646;-91
2022/11/24 09:56:09;;;;;;;4.30;2.83;;;0.90;99.90;;;;;;4824980;29;20696;-90
2022/11/24 09:58:44;;;;;;;4.30;4.00;;;0.80;99.90;;;;;;4827317;29;20515;-90
2022/11/24 10:01:25;;;;;;;5.47;3.43;;;0.70;99.90;;;;;;4839805;29;20195;-89
2022/11/24 10:03:54;;;;;;;5.87;3.73;;;0.70;99.90;;;;;;4838767;29;20209;-90
2022/11/24 10:06:43;;;;;;;3.63;3.33;;;0.70;99.90;;;;;;4823911;29;20214;-90
2022/11/24 10:09:36;;;;;;;15.17;2.30;;;0.70;99.90;;;;;;4838672;29;20184;-90
2022/11/24 10:12:23;;;;;;;2.23;2.03;;;0.60;99.90;;;;;;4836366;29;20191;-90
2022/11/24 10:14:58;;;;;;;2.60;2.23;;;0.50;99.90;;;;;;4836970;29;20215;-90
2022/11/24 10:17:52;;;;;;;2.00;1.90;;;0.50;99.90;;;;;;4816275;29;20298;-90
2022/11/24 10:20:39;;;;;;;2.63;2.53;;;0.60;99.90;;;;;;4836999;29;20271;-92
2022/11/24 10:23:13;;;;;;;3.13;2.43;;;0.50;99.90;;;;;;4839243;29;20259;-89
2022/11/24 10:25:54;;;;;;;2.20;2.10;;;0.50;99.90;;;;;;4824651;29;20638;-90
2022/11/24 10:28:20;;;;;;;5.00;3.53;;;;;;;;;;4837660;29;20293;-90
2022/11/24 10:30:46;;;;;;;7.00;3.17;;;;;;;;;;4823038;29;20626;-88
2022/11/24 10:33:19;;;;;;;3.23;2.97;;;0.50;99.90;;;;;;4822935;29;20181;-89
2022/11/24 10:36:18;;;;;;;4.63;2.93;;;0.50;99.90;;;;;;4838389;29;20260;-89
2022/11/24 10:38:55;;;;;;;5.63;4.07;;;0.40;99.90;;;;;;4824294;29;20200;-90
2022/11/24 10:41:50;;;;;;;3.57;3.00;;;0.50;99.90;;;;;;4838348;29;20187;-89
2022/11/24 10:44:16;;;;;;;6.47;3.90;;;;;;;;;;4822421;29;20631;-89
2022/11/24 10:46:45;;;;;;;7.63;3.63;;;;;;;;;;4823390;29;20214;-89
2022/11/24 10:49:26;;;;;;;15.37;9.80;;;0.60;99.90;;;;;;4824006;29;20188;-90
2022/11/24 10:51:52;;;;;;;8.47;4.83;;;;;;;;;;4833089;29;20232;-88
2022/11/24 10:54:22;;;;;;;6.23;4.77;;;0.50;99.90;;;;;;4822842;29;20188;-89
2022/11/24 10:56:51;;;;;;;13.87;2.70;;;0.60;99.90;;;;;;4823835;29;20208;-89
2022/11/24 10:59:32;;;;;;;4.13;2.87;;;0.60;99.90;;;;;;4838429;29;20638;-90
2022/11/24 11:01:58;;;;;;;3.33;2.70;;;;;;;;;;4838781;29;20191;-90
2022/11/24 11:04:30;;;;;;;2.73;1.90;;;0.60;99.90;;;;;;4823487;29;20748;-90
2022/11/24 11:07:15;;;;;;;2.70;2.50;;;0.60;99.90;;;;;;4824192;29;20617;-89
2022/11/24 11:09:41;;;;;;;5.33;4.00;;;;;;;;;;4835900;29;20233;-91
2022/11/24 11:12:20;;;;;;;4.07;3.40;;;0.50;99.90;;;;;;4822694;29;20541;-89
2022/11/24 11:14:47;;;;;;;2.60;2.40;;;;;;;;;;4837681;29;20733;-90
2022/11/24 11:17:34;;;;;;;8.10;3.73;;;0.50;99.90;;;;;;4822491;29;20231;-90
2022/11/24 11:20:16;;;;;;;8.80;5.53;;;0.60;99.90;;;;;;4818709;29;20190;-87
2022/11/24 11:22:45;;;;;;;13.93;5.07;;;0.50;99.90;;;;;;4837474;29;20183;-90
2022/11/24 11:25:19;;;;;;;7.33;5.03;;;0.50;99.90;;;;;;4823643;29;20304;-90
2022/11/24 11:27:45;;;;;;;3.13;2.93;;;;;;;;;;4837045;29;20235;-90
2022/11/24 11:30:16;;;;;;;4.43;2.80;;;0.50;99.90;;;;;;4822446;29;20227;-90
2022/11/24 11:32:59;;;;;;;4.33;2.83;;;0.50;99.90;;;;;;4823896;29;20187;-88
2022/11/24 11:35:27;;;;;;;6.47;4.83;;;0.50;99.90;;;;;;4824818;29;20180;-88
2022/11/24 11:38:00;;;;;;;3.87;3.53;;;4.20;99.90;;;;;;4841108;29;20192;-86
2022/11/24 11:40:28;;;;;;;10.93;3.70;;;0.50;99.90;;;;;;4858633;29;20184;-88
2022/11/24 11:43:12;;;;;;;5.77;4.87;;;0.30;99.90;;;;;;4845746;29;20231;-90
2022/11/24 11:45:43;;;;;;;6.27;4.13;;;0.50;99.90;;;;;;4846802;29;20171;-88
2022/11/24 11:48:09;;;;;;;4.67;3.83;;;;;;;;;;4861484;29;20198;-88
2022/11/24 11:50:50;;;;;;;6.67;3.67;;;0.50;99.90;;;;;;4845851;29;20205;-89
2022/11/24 11:53:25;;;;;;;2.87;2.67;;;1.90;99.90;;;;;;4861058;29;20187;-91
2022/11/24 11:56:18;;;;;;;4.40;2.43;;;2.00;99.90;;;;;;4846316;29;20224;-86
2022/11/24 11:58:55;;;;;;;6.13;3.23;;;0.50;99.90;;;;;;4861011;29;20169;-87
2022/11/24 12:01:31;;;;;;;10.93;4.60;;;0.50;99.90;;;;;;4846762;29;20199;-87
2022/11/24 12:03:56;;;;;;;18.70;7.60;;;0.50;99.90;;;;;;4846306;29;20232;-87
2022/11/24 12:06:25;;;;;;;8.30;5.17;;;3.00;99.90;;;;;;4846542;29;20177;-91
2022/11/24 12:08:57;;;;;;;72.40;25.80;;;3.70;99.90;;;;;;4846892;29;20195;-87
2022/11/24 12:11:58;;;;;;;21.33;8.73;;;0.60;99.90;;;;;;4844713;29;20283;-87
2022/11/24 12:14:42;;;;;;;7.50;4.50;;;0.50;99.90;;;;;;4822729;29;20239;-88
2022/11/24 12:17:52;;;;;;;4.23;3.07;;;0.60;99.90;;;;;;4825480;29;20219;-87
2022/11/24 12:20:42;;;;;;;2.50;1.60;;;0.50;99.90;;;;;;4824401;29;20297;-87
2022/11/24 12:23:33;;;;;;;2.87;2.67;;;0.40;99.90;;;;;;4827055;29;20189;-89
2022/11/24 12:26:21;;;;;;;3.43;2.47;;;0.50;99.90;;;;;;4825694;29;20194;-88
2022/11/24 12:29:14;;;;;;;4.47;3.83;;;0.50;99.90;;;;;;4828290;29;20235;-87
2022/11/24 12:32:04;;;;;;;9.43;2.80;;;0.40;99.90;;;;;;4826247;29;20289;-88
2022/11/24 12:34:52;;;;;;;16.83;3.77;;;0.40;99.90;;;;;;4825329;29;20202;-88
2022/11/24 12:37:31;;;;;;;4.47;3.13;;;0.40;99.90;;;;;;4825769;29;20212;-92
2022/11/24 12:40:28;;;;;;;4.47;3.40;;;0.40;99.90;;;;;;4826215;29;20191;-87
2022/11/24 12:43:15;;;;;;;3.37;2.63;;;0.50;99.90;;;;;;4825430;29;20200;-87
2022/11/24 12:46:16;;;;;;;5.00;3.57;;;0.50;99.90;;;;;;4826691;29;20168;-87
2022/11/24 12:49:10;;;;;;;3.47;3.17;;;0.30;99.90;;;;;;4840767;29;20191;-87
2022/11/24 12:51:40;;;;;;;4.00;2.87;;;0.30;99.90;;;;;;4825144;29;20273;-87
2022/11/24 12:54:11;;;;;;;4.17;3.83;;;0.30;99.90;;;;;;4840342;29;20243;-87
2022/11/24 12:56:46;;;;;;;3.53;3.23;;;0.30;99.90;;;;;;4824890;29;20219;-88
2022/11/24 12:59:30;;;;;;;7.55;3.67;;;0.30;99.90;;;;;;4840554;29;20082;-87
2022/11/24 13:02:18;;;;;;;7.40;4.67;;;0.30;99.90;;;;;;4825583;29;20612;-87
2022/11/24 13:05:20;;;;;;;4.87;4.37;;;0.20;99.90;;;;;;4826265;29;20180;-87
2022/11/24 13:07:51;;;;;;;6.07;4.03;;;0.10;99.90;;;;;;4820744;29;20260;-87
2022/11/24 13:10:23;;;;;;;7.27;3.73;;;0.10;99.90;;;;;;4840363;29;20561;-86
2022/11/24 13:13:09;;;;;;;6.13;4.47;;;0.10;99.90;;;;;;4824778;29;20658;-86
2022/11/24 13:15:53;;;;;;;7.27;4.50;;;2.10;99.90;;;;;;4840056;29;20183;-87
2022/11/24 13:18:41;;;;;;;6.77;5.53;;;0.10;99.90;;;;;;4826064;29;20622;-89
2022/11/24 13:21:30;;;;;;;4.53;3.43;;;0.20;99.90;;;;;;4825033;29;20191;-87
2022/11/24 13:24:04;;;;;;;8.13;4.77;;;0.20;99.90;;;;;;4839685;29;20230;-87
2022/11/24 13:26:51;;;;;;;5.13;4.20;;;0.10;99.90;;;;;;4825632;29;20179;-88
2022/11/24 13:29:29;;;;;;;7.77;5.03;;;3.80;99.90;;;;;;4839896;29;20239;-89
2022/11/24 13:32:18;;;;;;;9.13;5.67;;;0.10;99.90;;;;;;4825042;29;20192;-88
2022/11/24 13:34:48;;;;;;;8.50;6.27;;;;;;;;;;4824022;29;20195;-88
2022/11/24 13:37:18;;;;;;;21.87;7.20;;;0.10;99.90;;;;;;4824516;29;20227;-87
2022/11/24 13:39:50;;;;;;;7.90;5.30;;;0.10;99.90;;;;;;4839317;29;20225;-88
2022/11/24 13:42:16;;;;;;;6.27;3.83;;;;;;;;;;4824805;29;20232;-88
2022/11/24 13:44:56;;;;;;;6.77;3.53;;;0.20;99.90;;;;;;4808819;29;20192;-89
2022/11/24 13:47:33;;;;;;;21.48;7.43;;;0.30;99.90;;;;;;4824662;29;20434;-89
2022/11/24 13:50:00;;;;;;;6.57;4.10;;;0.10;99.90;;;;;;4839232;29;20206;-88
2022/11/24 13:52:35;;;;;;;5.10;4.10;;;4.00;99.90;;;;;;4839584;29;20203;-88
2022/11/24 13:55:22;;;;;;;11.73;6.17;;;0.10;99.90;;;;;;4838974;29;20303;-88
2022/11/24 13:57:54;;;;;;;8.00;4.77;;;0.10;99.90;;;;;;4823686;29;20237;-88
2022/11/24 14:00:29;;;;;;;4.27;2.93;;;3.10;99.90;;;;;;4839754;29;20181;-88
2022/11/24 14:03:18;;;;;;;4.13;3.73;;;0.00;99.90;;;;;;4825988;29;20179;-88
2022/11/24 14:05:52;;;;;;;11.97;5.30;;;2.30;99.90;;;;;;4825547;29;20228;-87
2022/11/24 14:08:26;;;;;;;7.40;5.13;;;0.00;99.90;;;;;;4839791;29;20269;-87
2022/11/24 14:10:56;;;;;;;25.80;12.93;;;0.00;99.90;;;;;;4839082;29;20184;-87
2022/11/24 14:13:22;;;;;;;16.60;7.33;;;;;;;;;;4825416;29;20214;-88
2022/11/24 14:16:14;;;;;;;18.03;9.13;;;0.00;99.90;;;;;;4824282;29;20222;-87
2022/11/24 14:18:43;;;;;;;11.60;6.57;;;-0.10;99.90;;;;;;4827205;29;20188;-88
2022/11/24 14:21:32;;;;;;;14.87;6.97;;;-0.10;99.90;;;;;;4824771;29;20746;-88
2022/11/24 14:24:02;;;;;;;17.63;8.60;;;-0.10;99.90;;;;;;4838608;29;20184;-87
2022/11/24 14:26:34;;;;;;;10.93;4.10;;;-0.20;99.90;;;;;;4839587;29;20287;-90
2022/11/24 14:29:19;;;;;;;6.67;3.87;;;-0.20;99.90;;;;;;4838693;29;20758;-88
2022/11/24 14:31:59;;;;;;;3.30;3.07;;;-0.20;99.90;;;;;;4824946;29;20646;-89
2022/11/24 14:34:28;;;;;;;4.80;4.30;;;-0.30;99.90;;;;;;4840084;29;20194;-89
2022/11/24 14:36:55;;;;;;;12.73;4.07;;;-0.30;99.90;;;;;;4839092;29;20195;-88
2022/11/24 14:39:43;;;;;;;13.40;5.73;;;-0.30;99.90;;;;;;4824470;29;20213;-88
2022/11/24 14:42:24;;;;;;;9.63;5.10;;;-0.30;99.90;;;;;;4825800;29;20195;-89
2022/11/24 14:45:02;;;;;;;6.47;4.90;;;-0.30;99.90;;;;;;4838561;29;20213;-89
2022/11/24 14:50:30;;;;;;;18.73;9.13;;;;;;;;;;4889056;28;4732826;-89
2022/11/24 14:52:57;;;;;;;8.60;5.33;;;-0.30;99.90;;;;;;5039881;28;20188;-89
2022/11/24 14:55:38;;;;;;;7.77;4.67;;;-0.30;99.90;;;;;;5031079;28;20263;-87
2022/11/24 14:58:37;;;;;;;8.73;6.10;;;-0.30;99.90;;;;;;5014833;28;20621;-87
2022/11/24 15:01:31;;;;;;;13.17;7.50;;;-0.30;99.90;;;;;;5030978;28;20183;-88
2022/11/24 15:04:13;;;;;;;15.17;8.90;;;-0.30;99.90;;;;;;5040296;28;20511;-87
2022/11/24 15:07:45;;;;;;;21.50;12.20;;;-0.30;99.90;;;;;;5045773;28;20185;-88
2022/11/24 15:10:39;;;;;;;15.83;9.70;;;-0.30;99.90;;;;;;4994552;28;20194;-87
2022/11/24 15:13:20;;;;;;;8.97;5.47;;;-0.30;99.90;;;;;;5053565;28;20275;-86
2022/11/24 15:15:54;;;;;;;9.87;5.60;;;-0.30;99.90;;;;;;5063627;28;20633;-87
2022/11/24 15:18:34;;;;;;;26.63;10.03;;;-0.30;99.90;;;;;;5034938;28;20173;-87
2022/11/24 15:21:03;;;;;;;24.47;11.23;;;;;;;;;;5060209;28;20545;-87
2022/11/24 15:23:45;;;;;;;19.50;10.17;;;-0.30;99.90;;;;;;5042845;28;20194;-87
2022/11/24 15:29:00;;;;;;;10.00;7.53;;;;;;;;;;5036488;28;20209;-88
2022/11/24 15:31:26;;;;;;;5.90;5.40;;;;;;;;;;5040065;28;20187;-88
2022/11/24 15:33:52;;;;;;;15.77;6.67;;;;;;;;;;5014611;28;20180;-88
2022/11/24 15:36:19;;;;;;;9.40;5.90;;;;;;;;;;5032453;28;20521;-88
2022/11/24 15:38:50;;;;;;;9.43;5.77;;;;;;;;;;5040998;28;20720;-87
2022/11/24 15:41:26;;;;;;;10.57;7.37;;;-0.40;99.90;;;;;;5035190;28;20192;-88
2022/11/24 15:43:59;;;;;;;17.60;10.13;;;;;;;;;;5053767;28;20168;-87
2022/11/24 15:46:29;;;;;;;10.23;6.30;;;-0.50;99.90;;;;;;5048742;28;20193;-89
2022/11/24 15:48:56;;;;;;;23.93;8.63;;;;;;;;;;5033758;28;20350;-87
2022/11/24 15:51:26;;;;;;;15.60;11.67;;;-0.50;99.90;;;;;;5036858;28;20312;-87
2022/11/24 15:54:16;;;;;;;9.73;7.43;;;-0.60;99.90;;;;;;5032268;28;20191;-86
2022/11/24 15:56:48;;;;;;;9.63;7.40;;;-0.60;99.90;;;;;;5029700;28;20625;-87
2022/11/24 15:59:23;;;;;;;8.37;5.80;;;-0.50;99.90;;;;;;5048940;28;20172;-88
2022/11/24 16:01:51;;;;;;;22.80;9.03;;;-0.60;99.90;;;;;;5029178;28;20204;-90
2022/11/24 16:04:19;;;;;;;5.33;4.80;;;;;;;;;;5036479;28;20194;-88
2022/11/24 16:06:48;;;;;;;13.43;6.03;;;;;;;;;;5015158;28;20189;-89
2022/11/24 16:09:28;;;;;;;;;;;;;;;;;;;;;
2022/11/24 16:12:02;;;;;;;7.97;5.53;;;;;;;;;;5030035;28;20195;-89
2022/11/24 16:14:56;;;;;;;14.13;7.80;;;-0.50;99.90;;;;;;5012583;28;20565;-90
2022/11/24 16:17:24;;;;;;;10.13;5.67;;;;;;;;;;4992449;28;20184;-90
2022/11/24 16:19:50;;;;;;;9.53;6.37;;;;;;;;;;5010788;28;20494;-88
2022/11/24 16:22:16;;;;;;;9.20;6.33;;;;;;;;;;5009873;28;20261;-89
2022/11/24 16:24:44;;;;;;;11.47;4.80;;;;;;;;;;5009521;28;20274;-89
2022/11/24 16:27:15;;;;;;;5.47;3.47;;;-0.60;99.90;;;;;;5013352;28;20180;-89
2022/11/24 16:29:54;;;;;;;4.27;3.93;;;-0.60;99.90;;;;;;5012740;28;20233;-90
2022/11/24 16:32:20;;;;;;;14.13;8.07;;;;;;;;;;4998410;28;20189;-87
2022/11/24 16:34:46;;;;;;;9.03;6.57;;;;;;;;;;4994897;28;20550;-89
2022/11/24 16:37:22;;;;;;;9.03;6.00;;;;;;;;;;4988071;28;20192;-89
2022/11/24 16:39:49;;;;;;;13.90;7.90;;;;;;;;;;5016253;28;20180;-87
2022/11/24 16:42:15;;;;;;;13.57;5.77;;;;;;;;;;5016799;28;20188;-87
2022/11/24 16:44:41;;;;;;;8.47;6.07;;;;;;;;;;5028835;28;20212;-87
2022/11/24 16:47:07;;;;;;;5.17;4.40;;;;;;;;;;5034537;28;20317;-86
2022/11/24 16:49:38;;;;;;;15.30;9.20;;;-0.60;99.90;;;;;;5011090;28;20723;-86
2022/11/24 16:52:38;;;;;;;16.93;8.13;;;-0.70;99.90;;;;;;4992315;28;20272;-87
2022/11/24 16:55:08;;;;;;;7.97;7.20;;;-0.60;99.90;;;;;;5029744;28;20224;-88
2022/11/24 16:57:36;;;;;;;13.87;10.03;;;-0.60;99.90;;;;;;5031528;28;20180;-88
2022/11/24 17:00:12;;;;;;;18.00;11.97;;;-0.60;99.90;;;;;;4995118;28;20193;-86
2022/11/24 17:02:48;;;;;;;;;;;;;;;;;;;;;
2022/11/24 17:05:16;;;;;;;24.40;10.80;;;-0.60;99.90;;;;;;5018169;28;20179;-88
2022/11/24 17:07:42;;;;;;;17.83;10.13;;;;;;;;;;4997167;28;20196;-88
2022/11/24 17:10:33;;;;;;;20.23;9.20;;;-0.60;99.90;;;;;;4997558;28;20749;-89
2022/11/24 17:13:14;;;;;;;16.30;9.60;;;-0.60;99.90;;;;;;5010251;28;20283;-91
2022/11/24 17:15:46;;;;;;;18.97;11.93;;;-0.60;99.90;;;;;;5040524;28;20191;-90
2022/11/24 17:18:32;;;;;;;;;;;;;;;;;;;;;
2022/11/24 17:21:04;;;;;;;13.03;7.93;;;-0.70;99.90;;;;;;5026155;28;20529;-90
2022/11/24 17:23:32;;;;;;;19.90;6.77;;;;;;;;;;5030870;28;20266;-90
2022/11/24 17:26:05;;;;;;;14.07;9.27;;;-0.70;99.90;;;;;;5011119;28;20180;-90
2022/11/24 17:28:36;;;;;;;12.30;7.07;;;;;;;;;;5021698;28;20204;-90
2022/11/24 17:31:07;;;;;;;13.50;7.20;;;-0.60;99.90;;;;;;5020201;28;20279;-91
2022/11/24 17:33:40;;;;;;;14.67;8.13;;;-0.60;99.90;;;;;;5023382;28;20541;-89
2022/11/24 17:36:09;;;;;;;6.73;6.03;;;;;;;;;;5013460;28;20383;-90
2022/11/24 17:38:35;;;;;;;12.97;5.93;;;;;;;;;;5001280;28;20187;-91
2022/11/24 17:41:01;;;;;;;14.87;5.40;;;;;;;;;;5015427;28;20184;-91
2022/11/24 17:43:30;;;;;;;6.73;5.67;;;-0.70;99.90;;;;;;4999140;28;20279;-92
2022/11/24 17:45:58;;;;;;;10.33;6.27;;;-0.70;99.90;;;;;;5013772;28;20630;-91
2022/11/24 17:48:26;;;;;;;24.30;8.70;;;-0.70;99.90;;;;;;5016943;28;20642;-90
2022/11/24 17:51:13;;;;;;;11.40;8.60;;;-0.70;99.90;;;;;;5012147;28;20243;-90
2022/11/24 17:53:46;;;;;;;15.67;9.27;;;-0.70;99.90;;;;;;5024179;28;20187;-91
2022/11/24 17:56:20;;;;;;;13.17;7.53;;;-0.70;99.90;;;;;;5022775;28;20177;-91
2022/11/24 17:58:56;;;;;;;8.80;5.53;;;-0.70;99.90;;;;;;5019399;28;20187;-91
2022/11/24 18:01:27;;;;;;;6.10;5.43;;;-0.70;99.90;;;;;;5011692;28;20211;-91
2022/11/24 18:03:55;;;;;;;13.13;7.20;;;-0.70;99.90;;;;;;5009211;28;20188;-88
2022/11/24 18:06:24;;;;;;;11.30;7.20;;;;;;;;;;5012862;28;20184;-90
2022/11/24 18:08:55;;;;;;;41.60;11.60;;;-0.80;99.90;;;;;;5033480;28;20219;-91
2022/11/24 18:11:31;;;;;;;21.27;9.13;;;-0.80;99.90;;;;;;5057463;28;20175;-89
2022/11/24 18:13:59;;;;;;;25.53;9.73;;;-0.80;99.90;;;;;;5034607;28;20199;-88
2022/11/24 18:16:27;;;;;;;25.80;8.93;;;;;;;;;;5040628;28;20213;-91
2022/11/24 18:19:09;;;;;;;8.83;6.67;;;-0.80;99.90;;;;;;5038722;28;20176;-94
2022/11/24 18:21:45;;;;;;;12.47;7.67;;;-0.70;99.90;;;;;;5043605;28;20163;-92
2022/11/24 18:24:12;;;;;;;18.83;8.83;;;-0.80;99.90;;;;;;5076792;28;20250;-88
2022/11/24 18:27:08;;;;;;;13.47;8.13;;;-0.70;99.90;;;;;;5044539;28;20158;-93
2022/11/24 18:29:35;;;;;;;20.37;9.30;;;;;;;;;;5038465;28;20202;-88
2022/11/24 18:32:01;;;;;;;10.50;5.67;;;;;;;;;;5053274;28;20226;-90
2022/11/24 18:34:29;;;;;;;13.83;7.43;;;-0.80;99.90;;;;;;5045052;28;20183;-93
2022/11/24 18:36:57;;;;;;;8.30;6.80;;;-0.80;99.90;;;;;;5029153;28;20226;-90
2022/11/24 18:39:23;;;;;;;15.00;5.50;;;;;;;;;;5037372;28;20196;-91
2022/11/24 18:41:49;;;;;;;10.03;6.13;;;;;;;;;;5037566;28;20177;-90
2022/11/24 18:44:20;;;;;;;14.97;4.40;;;-0.80;99.90;;;;;;5032774;28;20263;-92
2022/11/24 18:46:48;;;;;;;6.33;4.63;;;;;;;;;;5016276;28;20204;-90
2022/11/24 18:49:23;;;;;;;7.70;6.50;;;;;;;;;;5028125;28;20360;-89